Terminal Aerodrome Forecast
Issued by NWS Newport/Morehead City, NC

Home | Current Version | Previous Version | Graphics & Text | Print | Product List | Glossary On
Versions: 1 2 3 4 5 6 7 8 9 10 11 12 13 14
000
FTUS42 KMHX 241730
TAFEWN
TAF
KEWN 241730Z 2418/2518 32010G15KT P6SM SKC
     FM250000 VRB02KT P6SM SCT250
     FM251100 24005KT P6SM SCT100 BKN200
     FM251500 23006KT P6SM OVC050=

USA.gov is the U.S. government's official web portal to all federal, state and local government web resources and services.